METAR Formatted Surface Weather Observation
Issued by NWS

Home | Current Version | Previous Version | Text Only | Print | Product List | Glossary On
Versions: 1 2 3 4 5 6 7 8 9 10
000
SAUS46 KSEW 101803
MTRSMP
METAR KSMP 101756Z AUTO VRB06KT CLR 18/07 A3002 RMK AO2 SLP146
T01780067 10178 20094 56001 $



USA.gov is the U.S. government's official web portal to all federal, state and local government web resources and services.